Air Navigation Services of Czech Republic  
Last data update:  22.04.2021 16:17:27 UTC česká verze
   METEO Page displayed:  22.04.2021 16:19:07 UTC  
vysvětlivky
METAR EDDB 221550Z 30013KT CAVOK 10/M01 Q1019 TEMPO 29015G25KT=
METAR EDDC 221550Z 29010G22KT 260V320 9999 FEW045 09/M02 Q1020 NOSIG=
METAR EDDE 221550Z 34013KT CAVOK 09/M01 Q1022 NOSIG=
METAR EDDF 221550Z 35007KT 310V040 CAVOK 15/M03 Q1023 NOSIG=
METAR EDDM 221550Z 33011KT 310V010 CAVOK 13/M03 Q1020 NOSIG=
METAR EDDN 221550Z 31009KT 280V340 CAVOK 13/M04 Q1021 NOSIG=
METAR EDDP 221550Z 30015KT CAVOK 10/M01 Q1021 TEMPO 30020G30KT=
METAR EDQM 221550Z 32010KT 280V350 CAVOK 09/M03 Q1021=
METAR EPBY 221600Z 32018KT CAVOK 09/M07 Q1014=
METAR EPGD 221600Z 28020KT 9999 -SHRA FEW016TCU BKN020 03/M00 Q1012=
METAR EPKK 221600Z 28011KT 250V310 9999 FEW040 10/M04 Q1016=
METAR EPKT 221600Z 29014KT 270V330 CAVOK 09/M08 Q1016=
METAR EPLL 221600Z 31008KT 270V030 9999 SCT043CB 06/01 Q1016=
METAR EPPO 221600Z 29006KT 9999 SCT040TCU 08/00 Q1016=
METAR EPRZ 221600Z 26011KT 9999 FEW030 08/03 Q1016=
METAR EPWA 221600Z 28016KT CAVOK 08/00 Q1015 NOSIG=
METAR EPWR 221600Z 28017KT CAVOK 10/M03 Q1018=
METAR LHBP 221600Z 29012KT CAVOK 15/05 Q1016 NOSIG=
METAR LHSM 221545Z AUTO 02011KT 350V050 CAVOK 13/08 Q1018 NOSIG=
METAR LKBC 221600Z AUTO 28012KT 260V320 9999 FEW077 BKN180 11/M06 Q1018=
METAR LKCV 221600Z 32014KT CAVOK 09/M02 Q1019 NOSIG RMK BLU BLU=
METAR LKKB 221600Z 33013KT 9999 FEW046 BKN190 09/M05 Q1020 NOSIG RMK BLU BLU=
METAR LKKU NIL
METAR LKKV 221600Z 30014KT CAVOK 07/M06 Q1020 RMK REG QNH 1015=
METAR LKLN 221600Z AUTO 36007G17KT 300V080 9999 BKN210 11/M05 Q1020=
METAR LKMT 221600Z 11003KT 080V190 9999 VCSH FEW036CB SCT040 10/02 Q1017 TEMPO TS RMK REG QNH 1015=
METAR LKNA 221600Z 32016KT CAVOK 08/M04 Q1018 NOSIG RMK BLU BLU=
METAR LKPD 221600Z 30011KT CAVOK 09/M03 Q1019 NOSIG RMK BLU BLU=
METAR LKPJ 221600Z AUTO 31012KT 280V340 9999 SCT180 11/M03 Q1017=
METAR LKPR 221600Z 33017KT 9999 FEW048 08/M04 Q1020 NOSIG RMK REG QNH 1015=
METAR LKTB 221600Z 30016KT 9999 FEW047 11/M04 Q1018 NOSIG RMK REG QNH 1015=
METAR LKVO NIL
METAR LOWI 221550Z 25007KT 180V310 9999 -RA SCT050 BKN070 FEW070TCU 12/06 Q1020 NOSIG=
METAR LOWL 221550Z 28017KT 9999 FEW060 14/M01 Q1018 BECMG 28007KT=
METAR LOWS 221550Z 15008KT 9999 FEW044 BKN050 10/07 Q1020 NOSIG=
METAR LOWW 221550Z 31011KT 9999 FEW022 12/02 Q1018 NOSIG=
METAR LZIB 221600Z 32009KT 9999 FEW046 12/01 Q1018 NOSIG=
METAR LZKZ 221600Z 03011KT 9999 FEW030 SCT040 08/05 Q1016 NOSIG=
METAR LZMC NIL
METAR LZPP 221600Z 32009KT CAVOK 12/01 Q1017=
METAR LZSL NIL
METAR LZTT 221600Z 26015KT 9999 FEW020 SCT036 07/01 Q1015 NOSIG=
METAR LZZI 221600Z 36005KT 320V030 9999 FEW042 09/M00 Q1017=